createdAt,value
2023-04-12T00:00:57.598Z,97582.50
2023-04-12T00:03:25.438Z,97582.56
2023-04-12T00:05:55.587Z,97558.28
2023-04-12T00:08:33.038Z,97569.03
2023-04-12T00:11:00.780Z,97565.75
2023-04-12T00:13:27.541Z,97561.84
2023-04-12T00:15:54.020Z,97550.03
2023-04-12T00:18:21.690Z,97549.34
2023-04-12T00:20:48.073Z,97555.94
2023-04-12T00:23:15.343Z,97560.75
2023-04-12T00:25:41.789Z,97543.09
2023-04-12T00:28:08.223Z,97537.16
2023-04-12T00:30:34.694Z,97491.53
2023-04-12T00:33:01.246Z,97528.66
2023-04-12T00:35:27.732Z,97526.94
2023-04-12T00:37:54.849Z,97521.50
2023-04-12T00:40:21.331Z,97519.25
2023-04-12T00:42:47.903Z,97513.88
2023-04-12T00:45:14.376Z,97505.34
2023-04-12T00:47:42.896Z,97503.16
2023-04-12T00:50:10.750Z,97498.16
2023-04-12T00:52:39.196Z,97473.09
2023-04-12T00:55:09.861Z,97484.69
2023-04-12T00:57:38.867Z,97481.44
2023-04-12T01:00:12.884Z,97477.59
2023-04-12T01:02:47.818Z,97479.69
2023-04-12T01:05:22.097Z,97470.31
2023-04-12T01:08:06.189Z,97464.91
2023-04-12T01:10:41.907Z,97445.16
2023-04-12T01:13:28.881Z,97445.47
2023-04-12T01:16:20.753Z,97434.19
2023-04-12T01:18:51.224Z,97426.69
2023-04-12T01:21:45.832Z,97422.88
2023-04-12T01:24:29.550Z,97423.22
2023-04-12T01:27:00.747Z,97417.50
2023-04-12T01:29:30.131Z,97414.19
2023-04-12T01:32:04.812Z,97404.94
2023-04-12T01:34:33.466Z,97412.41
2023-04-12T01:37:02.392Z,97369.63
2023-04-12T01:39:33.660Z,97400.97
2023-04-12T01:42:01.474Z,97400.41
2023-04-12T01:44:28.291Z,97393.69
2023-04-12T01:46:55.261Z,97381.34
2023-04-12T01:49:32.684Z,97379.75
2023-04-12T01:52:09.592Z,97364.78
2023-04-12T01:54:39.270Z,97370.88
2023-04-12T01:57:08.453Z,97358.09
2023-04-12T01:59:40.066Z,97354.78
2023-04-12T02:02:08.313Z,97363.13
2023-04-12T02:04:36.262Z,97355.78
2023-04-12T02:07:03.570Z,97345.75
2023-04-12T02:09:30.624Z,97345.31
2023-04-12T02:11:57.165Z,97341.03
2023-04-12T02:14:23.584Z,97338.38
2023-04-12T02:16:50.836Z,97341.25
2023-04-12T02:19:17.344Z,97331.72
2023-04-12T02:21:45.531Z,97326.50
2023-04-12T02:24:12.852Z,97326.41
2023-04-12T02:26:39.934Z,97319.25
2023-04-12T02:29:10.175Z,97317.50
2023-04-12T02:31:38.873Z,97310.81
2023-04-12T02:34:08.794Z,97309.78
2023-04-12T02:36:37.788Z,97297.66
2023-04-12T02:39:05.110Z,97289.81
2023-04-12T02:41:34.170Z,97291.41
2023-04-12T02:44:00.616Z,97275.72
2023-04-12T02:46:27.644Z,97275.84
2023-04-12T02:48:57.745Z,97274.22
2023-04-12T02:51:32.379Z,97265.69
2023-04-12T02:53:59.990Z,97262.78
2023-04-12T02:56:31.418Z,97257.03
2023-04-12T02:59:06.877Z,97239.59
2023-04-12T03:01:56.173Z,97238.69
2023-04-12T03:04:30.514Z,97233.03
2023-04-12T03:06:59.554Z,97225.53
2023-04-12T03:09:34.938Z,97212.50
2023-04-12T03:12:02.701Z,97214.41
2023-04-12T03:14:33.460Z,97215.13
2023-04-12T03:17:00.086Z,97201.41
2023-04-12T03:19:28.883Z,97202.78
2023-04-12T03:21:55.377Z,97190.88
2023-04-12T03:24:22.299Z,97184.19
2023-04-12T03:26:50.193Z,97175.97
2023-04-12T03:29:22.170Z,97174.38
2023-04-12T03:31:50.473Z,97161.25
2023-04-12T03:34:17.779Z,97147.75
2023-04-12T03:36:48.970Z,97113.16
2023-04-12T03:39:24.364Z,97137.47
2023-04-12T03:41:53.188Z,97126.88
2023-04-12T03:44:22.716Z,97119.97
2023-04-12T03:46:49.484Z,97116.72
2023-04-12T03:49:17.331Z,97111.09
2023-04-12T03:51:46.105Z,97099.09
2023-04-12T03:54:13.172Z,97094.69
2023-04-12T03:56:56.582Z,97093.78
2023-04-12T03:59:32.663Z,97093.78
2023-04-12T04:02:01.257Z,97093.09
2023-04-12T04:04:30.032Z,97088.84
2023-04-12T04:07:01.163Z,97093.31
2023-04-12T04:09:30.366Z,97082.63
2023-04-12T04:11:56.836Z,97079.16
2023-04-12T04:14:24.495Z,97070.06
2023-04-12T04:16:51.371Z,97074.19
2023-04-12T04:19:19.780Z,97066.34
2023-04-12T04:21:47.483Z,97057.84
2023-04-12T04:24:14.227Z,97062.88
2023-04-12T04:26:45.940Z,97058.03
2023-04-12T04:29:21.968Z,97050.09
2023-04-12T04:31:48.713Z,97040.63
2023-04-12T04:34:16.334Z,97041.56
2023-04-12T04:36:46.805Z,97034.31
2023-04-12T04:39:20.875Z,97036.06
2023-04-12T04:41:54.353Z,97033.41
2023-04-12T04:44:29.286Z,97032.72
2023-04-12T04:46:59.082Z,97020.72
2023-04-12T04:49:25.562Z,97022.69
2023-04-12T04:51:53.139Z,97021.53
2023-04-12T04:54:22.342Z,97007.81
2023-04-12T04:56:48.761Z,97005.63
2023-04-12T04:59:17.859Z,96999.28
2023-04-12T05:01:44.458Z,96987.53
2023-04-12T05:04:11.121Z,96986.41
2023-04-12T05:06:37.596Z,96977.72
2023-04-12T05:09:06.215Z,96968.41
2023-04-12T05:11:38.042Z,96964.75
2023-04-12T05:14:12.031Z,96951.91
2023-04-12T05:16:39.200Z,96952.75
2023-04-12T05:19:06.983Z,96953.66
2023-04-12T05:21:34.317Z,96950.88
2023-04-12T05:24:01.364Z,96947.56
2023-04-12T05:26:28.858Z,96952.50
2023-04-12T05:28:57.327Z,96946.63
2023-04-12T05:31:24.718Z,96941.00
2023-04-12T05:33:53.776Z,96930.03
2023-04-12T05:36:40.166Z,96939.59
2023-04-12T05:39:07.457Z,96939.94
2023-04-12T05:41:35.682Z,96930.06
2023-04-12T05:44:03.626Z,96920.81
2023-04-12T05:46:30.186Z,96914.16
2023-04-12T05:48:57.820Z,96910.59
2023-04-12T05:51:37.740Z,96903.09
2023-04-12T05:54:07.909Z,96898.03
2023-04-12T05:56:35.893Z,96810.69
2023-04-12T05:59:04.621Z,96879.25
2023-04-12T06:01:33.060Z,96886.41
2023-04-12T06:04:04.123Z,96863.00
2023-04-12T06:06:31.440Z,96881.84
2023-04-12T06:09:00.632Z,96870.50
2023-04-12T06:11:28.662Z,96873.81
2023-04-12T06:13:55.629Z,96873.31
2023-04-12T06:16:22.935Z,96878.34
2023-04-12T06:18:49.536Z,96867.53
2023-04-12T06:21:16.087Z,96864.22
2023-04-12T06:23:42.619Z,96863.66
2023-04-12T06:26:09.244Z,96859.50
2023-04-12T06:28:37.188Z,96855.63
2023-04-12T06:31:04.143Z,96834.78
2023-04-12T06:33:36.774Z,96850.56
2023-04-12T06:36:07.146Z,96861.03
2023-04-12T06:38:33.883Z,96858.56
2023-04-12T06:41:00.601Z,96845.38
2023-04-12T06:43:27.112Z,96835.25
2023-04-12T06:45:53.595Z,96833.06
2023-04-12T06:48:20.171Z,96831.22
2023-04-12T06:50:46.626Z,96816.06
2023-04-12T06:53:16.149Z,96792.91
2023-04-12T06:55:42.537Z,96809.06
2023-04-12T06:58:09.189Z,96812.16
2023-04-12T07:00:35.856Z,96801.44
2023-04-12T07:03:02.695Z,96800.88
2023-04-12T07:05:29.250Z,96796.78
2023-04-12T07:07:56.012Z,96783.69
2023-04-12T07:10:22.507Z,96775.66
2023-04-12T07:12:49.648Z,96772.44
2023-04-12T07:15:16.117Z,96754.91
2023-04-12T07:17:42.743Z,96758.09
2023-04-12T07:20:09.818Z,96745.38
2023-04-12T07:22:36.418Z,96742.59
2023-04-12T07:25:05.066Z,96741.03
2023-04-12T07:27:31.750Z,96734.47
2023-04-12T07:29:58.732Z,96735.56
2023-04-12T07:32:25.964Z,96734.38
2023-04-12T07:34:53.039Z,96728.97
2023-04-12T07:37:20.451Z,96721.28
2023-04-12T07:39:46.980Z,96721.53
2023-04-12T07:42:13.484Z,96719.16
2023-04-12T07:44:39.900Z,96717.06
2023-04-12T07:47:07.162Z,96723.19
2023-04-12T07:49:33.584Z,96713.72
2023-04-12T07:52:00.054Z,96722.69
2023-04-12T07:54:27.862Z,96716.50
2023-04-12T07:56:59.325Z,96715.69
2023-04-12T07:59:25.812Z,96714.50
2023-04-12T08:01:52.551Z,96714.47
2023-04-12T08:04:19.110Z,96702.84
2023-04-12T08:06:45.824Z,96700.63
2023-04-12T08:09:12.491Z,96701.94
2023-04-12T08:11:38.937Z,96696.41
2023-04-12T08:14:05.557Z,96706.44
2023-04-12T08:16:32.589Z,96708.91
2023-04-12T08:18:59.045Z,96709.22
2023-04-12T08:21:26.007Z,96711.50
2023-04-12T08:23:52.382Z,96709.38
2023-04-12T08:26:18.892Z,96702.03
2023-04-12T08:28:45.375Z,96695.16
2023-04-12T08:31:13.191Z,96696.09
2023-04-12T08:33:39.615Z,96686.38
2023-04-12T08:36:06.778Z,96697.00
2023-04-12T08:41:07.438Z,96686.69
2023-04-12T08:43:34.902Z,96692.44
2023-04-12T08:46:01.703Z,96699.22
2023-04-12T08:48:28.559Z,96687.28
2023-04-12T08:50:57.701Z,96679.44
2023-04-12T08:53:24.221Z,96672.53
2023-04-12T08:55:50.820Z,96679.66
2023-04-12T08:58:17.239Z,96670.41
2023-04-12T09:00:45.073Z,96675.16
2023-04-12T09:03:11.734Z,96667.56
2023-04-12T09:05:38.550Z,96651.22
2023-04-12T09:08:05.273Z,96650.63
2023-04-12T09:10:37.183Z,96643.28
2023-04-12T09:13:07.248Z,96645.13
2023-04-12T09:15:34.993Z,96652.84
2023-04-12T09:18:07.348Z,96641.56
2023-04-12T09:20:34.507Z,96643.50
2023-04-12T09:23:02.738Z,96643.81
2023-04-12T09:25:40.565Z,96637.91
2023-04-12T09:28:26.629Z,96636.13
2023-04-12T09:30:58.047Z,96630.00
2023-04-12T09:33:34.629Z,96620.44
2023-04-12T09:36:02.921Z,96634.63
2023-04-12T09:38:33.429Z,96619.88
2023-04-12T09:41:22.328Z,96621.03
2023-04-12T09:43:50.044Z,96619.25
2023-04-12T09:46:16.702Z,96609.19
2023-04-12T09:48:51.531Z,96613.16
2023-04-12T09:51:34.130Z,96605.19
2023-04-12T09:54:05.570Z,96603.06
2023-04-12T09:56:35.689Z,96605.75
2023-04-12T09:59:04.303Z,96602.09
2023-04-12T10:01:36.756Z,96581.00
2023-04-12T10:04:05.122Z,96599.72
2023-04-12T10:06:33.253Z,96596.28
2023-04-12T10:09:04.177Z,96599.22
2023-04-12T10:11:32.076Z,96590.47
2023-04-12T10:13:59.012Z,96580.38
2023-04-12T10:16:27.149Z,96561.69
2023-04-12T10:18:55.371Z,96589.22
2023-04-12T10:21:22.358Z,96568.97
2023-04-12T10:23:48.900Z,96574.38
2023-04-12T10:26:16.724Z,96582.91
2023-04-12T10:28:46.969Z,96576.22
2023-04-12T10:31:32.847Z,96578.63
2023-04-12T10:34:02.672Z,96573.03
2023-04-12T10:36:54.718Z,96564.47
2023-04-12T10:39:38.960Z,96562.38
2023-04-12T10:42:18.561Z,96563.44
2023-04-12T10:44:45.574Z,96557.28
2023-04-12T10:47:12.257Z,96551.97
2023-04-12T10:49:39.490Z,96562.09
2023-04-12T10:52:08.989Z,96557.75
2023-04-12T10:54:36.698Z,96564.75
2023-04-12T10:57:05.125Z,96557.63
2023-04-12T11:00:05.400Z,96555.75
2023-04-12T11:02:34.453Z,96553.63
2023-04-12T11:05:08.639Z,96560.28
2023-04-12T11:07:54.475Z,96555.50
2023-04-12T11:10:40.141Z,96547.22
2023-04-12T11:13:09.495Z,96541.66
2023-04-12T11:15:39.627Z,96538.44
2023-04-12T11:18:11.703Z,96532.31
2023-04-12T11:20:40.483Z,96537.91
2023-04-12T11:23:10.581Z,96547.50
2023-04-12T11:25:37.827Z,96537.84
2023-04-12T11:28:11.078Z,96533.47
2023-04-12T11:30:54.296Z,96532.41
2023-04-12T11:33:32.080Z,96523.06
2023-04-12T11:35:58.667Z,96527.09
2023-04-12T11:38:25.163Z,96528.78
2023-04-12T11:40:51.641Z,96531.41
2023-04-12T11:43:21.452Z,96517.25
2023-04-12T11:45:48.171Z,96505.28
2023-04-12T11:48:15.862Z,96512.75
2023-04-12T11:50:42.282Z,96514.78
2023-04-12T11:53:17.822Z,96503.53
2023-04-12T11:55:51.676Z,96496.59
2023-04-12T11:58:23.016Z,96510.47
2023-04-12T12:00:50.499Z,96514.13
2023-04-12T12:03:19.042Z,96510.47
2023-04-12T12:05:46.641Z,96512.00
2023-04-12T12:08:13.635Z,96518.44
2023-04-12T12:10:55.585Z,96505.34
2023-04-12T12:13:27.270Z,96503.50
2023-04-12T12:15:53.788Z,96506.16
2023-04-12T12:18:26.345Z,96505.09
2023-04-12T12:20:52.794Z,96510.72
2023-04-12T12:23:32.284Z,96504.16
2023-04-12T12:26:10.508Z,96500.19
2023-04-12T12:28:44.764Z,96515.44
2023-04-12T12:31:12.356Z,96508.97
2023-04-12T12:33:46.470Z,96505.78
2023-04-12T12:36:16.403Z,96516.38
2023-04-12T12:38:43.091Z,96512.34
2023-04-12T12:41:20.843Z,96512.31
2023-04-12T12:43:52.386Z,96509.59
2023-04-12T12:46:20.099Z,96518.41
2023-04-12T12:48:48.093Z,96516.56
2023-04-12T12:51:20.035Z,96519.75
2023-04-12T12:53:47.153Z,96518.78
2023-04-12T12:56:14.746Z,96537.25
2023-04-12T12:58:42.084Z,96534.13
2023-04-12T13:01:08.850Z,96561.66
2023-04-12T13:03:35.633Z,96572.06
2023-04-12T13:06:02.215Z,96571.78
2023-04-12T13:08:34.286Z,96571.53
2023-04-12T13:11:00.954Z,96565.09
2023-04-12T13:13:27.464Z,96556.53
2023-04-12T13:15:53.975Z,96553.06
2023-04-12T13:18:20.424Z,96553.31
2023-04-12T13:20:46.928Z,96558.13
2023-04-12T13:23:14.654Z,96546.09
2023-04-12T13:25:41.074Z,96548.75
2023-04-12T13:28:07.501Z,96546.84
2023-04-12T13:30:34.092Z,96554.38
2023-04-12T13:33:00.601Z,96548.25
2023-04-12T13:35:27.338Z,96553.56
2023-04-12T13:37:53.742Z,96553.31
2023-04-12T13:40:20.351Z,96559.72
2023-04-12T13:42:46.805Z,96550.38
2023-04-12T13:45:13.388Z,96545.06
2023-04-12T13:47:39.933Z,96545.63
2023-04-12T13:50:07.084Z,96552.31
2023-04-12T13:52:33.543Z,96538.97
2023-04-12T13:55:00.109Z,96538.97
2023-04-12T13:57:26.525Z,96538.97
2023-04-12T13:59:53.058Z,96553.06
2023-04-12T14:02:19.596Z,96549.63
2023-04-12T14:04:54.107Z,96539.72
2023-04-12T14:07:21.188Z,96536.28
2023-04-12T14:09:48.601Z,96553.06
2023-04-12T14:12:15.423Z,96541.59
2023-04-12T14:14:42.203Z,96556.00
2023-04-12T14:17:08.640Z,96544.00
2023-04-12T14:19:35.364Z,96546.66
2023-04-12T14:22:02.405Z,96562.88
2023-04-12T14:24:29.119Z,96577.81
2023-04-12T14:26:57.097Z,96590.97
2023-04-12T14:29:23.611Z,96587.22
2023-04-12T14:31:50.002Z,96564.50
2023-04-12T14:34:16.463Z,96558.13
2023-04-12T14:36:42.946Z,96565.56
2023-04-12T14:39:11.283Z,96569.28
2023-04-12T14:41:40.128Z,96556.22
2023-04-12T14:44:06.700Z,96589.06
2023-04-12T14:46:33.122Z,96588.00
2023-04-12T14:49:01.310Z,96583.72
2023-04-12T14:51:29.179Z,96580.25
2023-04-12T14:53:56.071Z,96582.97
2023-04-12T14:56:28.359Z,96588.59
2023-04-12T14:58:56.712Z,96593.13
2023-04-12T15:01:23.995Z,96588.06
2023-04-12T15:03:54.169Z,96578.97
2023-04-12T15:06:22.968Z,96558.41
2023-04-12T15:08:55.033Z,96573.81
2023-04-12T15:11:29.882Z,96569.25
2023-04-12T15:13:57.033Z,96565.25
2023-04-12T15:16:23.632Z,96578.63
2023-04-12T15:18:51.214Z,96583.41
2023-04-12T15:21:18.002Z,96565.78
2023-04-12T15:23:44.887Z,96586.06
2023-04-12T15:26:12.034Z,96583.06
2023-04-12T15:28:38.668Z,96593.50
2023-04-12T15:31:05.956Z,96594.78
2023-04-12T15:33:34.779Z,96586.53
2023-04-12T15:36:02.389Z,96588.09
2023-04-12T15:38:29.871Z,96585.38
2023-04-12T15:40:59.257Z,96578.69
2023-04-12T15:43:26.426Z,96513.34
2023-04-12T15:45:54.591Z,96553.63
2023-04-12T15:48:23.019Z,96577.63
2023-04-12T15:50:51.092Z,96566.97
2023-04-12T15:53:20.796Z,96570.72
2023-04-12T15:55:47.618Z,96575.03
2023-04-12T15:58:14.704Z,96581.72
2023-04-12T16:00:41.249Z,96580.75
2023-04-12T16:03:08.216Z,96581.53
2023-04-12T16:05:34.842Z,96575.69
2023-04-12T16:08:01.536Z,96578.88
2023-04-12T16:10:28.044Z,96587.44
2023-04-12T16:12:56.551Z,96584.50
2023-04-12T16:15:23.389Z,96582.97
2023-04-12T16:17:54.362Z,96605.38
2023-04-12T16:20:22.205Z,96580.53
2023-04-12T16:22:54.311Z,96602.69
2023-04-12T16:25:25.034Z,96595.72
2023-04-12T16:27:51.845Z,96602.16
2023-04-12T16:30:18.415Z,96581.06
2023-04-12T16:32:46.756Z,96577.34
2023-04-12T16:35:15.001Z,96592.31
2023-04-12T16:37:42.803Z,96592.84
2023-04-12T16:40:12.360Z,96597.91
2023-04-12T16:42:43.417Z,96588.84
2023-04-12T16:45:11.927Z,96593.38
2023-04-12T16:47:39.637Z,96598.19
2023-04-12T16:50:08.935Z,96588.56
2023-04-12T16:52:36.751Z,96592.31
2023-04-12T16:55:04.025Z,96601.38
2023-04-12T16:57:30.794Z,96563.78
2023-04-12T16:59:57.418Z,96600.88
2023-04-12T17:02:24.806Z,96610.75
2023-04-12T17:04:51.534Z,96609.13
2023-04-12T17:07:18.839Z,96602.75
2023-04-12T17:09:45.427Z,96601.41
2023-04-12T17:12:12.429Z,96601.41
2023-04-12T17:14:39.021Z,96597.13
2023-04-12T17:17:06.692Z,96596.88
2023-04-12T17:19:33.669Z,96601.94
2023-04-12T17:22:00.285Z,96604.09
2023-04-12T17:24:26.847Z,96609.13
2023-04-12T17:26:53.715Z,96602.47
2023-04-12T17:29:20.378Z,96598.75
2023-04-12T17:31:49.749Z,96601.41
2023-04-12T17:34:18.429Z,96613.41
2023-04-12T17:36:45.197Z,96614.75
2023-04-12T17:39:11.623Z,96618.47
2023-04-12T17:41:38.239Z,96612.09
2023-04-12T17:44:05.653Z,96608.09
2023-04-12T17:46:33.052Z,96598.22
2023-04-12T17:49:02.585Z,96603.03
2023-04-12T17:51:29.192Z,96606.22
2023-04-12T17:53:58.195Z,96605.94
2023-04-12T17:56:25.859Z,96605.69
2023-04-12T17:58:52.291Z,96613.13
2023-04-12T18:01:18.754Z,96615.03
2023-04-12T18:03:45.400Z,96621.38
2023-04-12T18:06:13.748Z,96612.84
2023-04-12T18:08:40.211Z,96622.69
2023-04-12T18:11:07.802Z,96635.22
2023-04-12T18:13:34.355Z,96641.34
2023-04-12T18:16:01.486Z,96646.97
2023-04-12T18:18:28.015Z,96640.28
2023-04-12T18:20:54.460Z,96644.53
2023-04-12T18:23:21.394Z,96661.31
2023-04-12T18:25:48.002Z,96683.97
2023-04-12T18:28:15.081Z,96701.78
2023-04-12T18:30:41.490Z,96730.56
2023-04-12T18:33:08.243Z,96770.28
2023-04-12T18:35:34.868Z,96794.66
2023-04-12T18:38:01.337Z,96794.25
2023-04-12T18:40:28.546Z,96807.91
2023-04-12T18:42:55.241Z,96805.88
2023-04-12T18:45:22.658Z,96797.50
2023-04-12T18:47:51.155Z,96789.03
2023-04-12T18:50:19.242Z,96805.72
2023-04-12T18:52:46.054Z,96799.41
2023-04-12T18:55:12.504Z,96794.59
2023-04-12T18:57:39.265Z,96787.06
2023-04-12T19:00:13.434Z,96784.28
2023-04-12T19:02:40.982Z,96782.31
2023-04-12T19:05:10.211Z,96782.50
2023-04-12T19:07:37.174Z,96787.81
2023-04-12T19:10:04.323Z,96788.28
2023-04-12T19:12:31.653Z,96766.13
2023-04-12T19:14:58.291Z,96768.41
2023-04-12T19:17:27.529Z,96774.81
2023-04-12T19:19:54.762Z,96776.56
2023-04-12T19:22:21.738Z,96774.97
2023-04-12T19:24:49.881Z,96777.06
2023-04-12T19:27:16.809Z,96789.84
2023-04-12T19:29:43.985Z,96792.50
2023-04-12T19:32:13.784Z,96796.22
2023-04-12T19:34:41.586Z,96794.53
2023-04-12T19:37:08.485Z,96800.84
2023-04-12T19:39:36.083Z,96793.19
2023-04-12T19:42:03.464Z,96799.47
2023-04-12T19:44:30.437Z,96798.66
2023-04-12T19:46:56.889Z,96805.00
2023-04-12T19:49:23.838Z,96724.66
2023-04-12T19:51:50.876Z,96797.44
2023-04-12T19:54:18.866Z,96817.44
2023-04-12T19:56:49.667Z,96830.63
2023-04-12T19:59:17.740Z,96813.75
2023-04-12T20:01:50.615Z,96821.31
2023-04-12T20:04:21.480Z,96824.81
2023-04-12T20:06:51.826Z,96811.47
2023-04-12T20:09:18.606Z,96840.72
2023-04-12T20:11:45.386Z,96842.72
2023-04-12T20:14:11.827Z,96850.91
2023-04-12T20:16:42.656Z,96853.72
2023-04-12T20:19:10.046Z,96861.69
2023-04-12T20:21:36.614Z,96868.13
2023-04-12T20:24:05.095Z,96871.69
2023-04-12T20:26:31.600Z,96882.75
2023-04-12T20:28:59.846Z,96885.25
2023-04-12T20:31:27.265Z,96883.56
2023-04-12T20:33:55.032Z,96875.81
2023-04-12T20:36:22.637Z,96876.72
2023-04-12T20:38:53.073Z,96872.81
2023-04-12T20:41:20.168Z,96868.78
2023-04-12T20:43:47.935Z,96865.56
2023-04-12T20:46:17.469Z,96863.00
2023-04-12T20:48:46.274Z,96865.56
2023-04-12T20:51:16.295Z,96869.72
2023-04-12T20:53:49.117Z,96870.31
2023-04-12T20:56:16.885Z,96887.13
2023-04-12T20:58:44.278Z,96888.31
2023-04-12T21:01:14.841Z,96879.78
2023-04-12T21:03:42.671Z,96873.22
2023-04-12T21:06:10.584Z,96876.44
2023-04-12T21:08:37.970Z,96878.97
2023-04-12T21:11:04.593Z,96880.72
2023-04-12T21:13:31.083Z,96882.66
2023-04-12T21:15:58.735Z,96883.78
2023-04-12T21:18:25.316Z,96879.44
2023-04-12T21:20:51.868Z,96886.09
2023-04-12T21:23:18.459Z,96889.78
2023-04-12T21:25:50.784Z,96883.34
2023-04-12T21:28:18.064Z,96880.72
2023-04-12T21:30:46.024Z,96875.63
2023-04-12T21:33:12.701Z,96873.22
2023-04-12T21:35:40.137Z,96894.31
2023-04-12T21:38:06.569Z,96887.38
2023-04-12T21:40:33.038Z,96886.38
2023-04-12T21:42:59.485Z,96891.44
2023-04-12T21:45:27.260Z,96895.91
2023-04-12T21:47:53.818Z,96892.38
2023-04-12T21:50:20.466Z,96891.22
2023-04-12T21:52:47.761Z,96903.44
2023-04-12T21:55:14.236Z,96905.75
2023-04-12T21:57:40.780Z,96908.03
2023-04-12T22:00:09.791Z,96902.41
2023-04-12T22:02:39.154Z,96912.06
2023-04-12T22:05:06.758Z,96874.22
2023-04-12T22:07:33.601Z,96910.13
2023-04-12T22:10:01.658Z,96909.09
2023-04-12T22:12:28.197Z,96914.03
2023-04-12T22:14:57.514Z,96910.94
2023-04-12T22:17:24.079Z,96917.16
2023-04-12T22:19:51.568Z,96915.78
2023-04-12T22:22:18.154Z,96919.34
2023-04-12T22:24:44.634Z,96914.72
2023-04-12T22:27:11.152Z,96902.88
2023-04-12T22:29:37.915Z,96909.00
2023-04-12T22:32:04.660Z,96883.75
2023-04-12T22:34:32.289Z,96907.25
2023-04-12T22:36:58.866Z,96903.34
2023-04-12T22:39:26.497Z,96915.53
2023-04-12T22:41:53.512Z,96910.09
2023-04-12T22:44:23.267Z,96906.44
2023-04-12T22:46:50.812Z,96911.03
2023-04-12T22:49:19.842Z,96907.38
2023-04-12T22:51:46.367Z,96911.66
2023-04-12T22:54:13.084Z,96914.38
2023-04-12T22:56:45.249Z,96906.75
2023-04-12T22:59:16.750Z,96902.59
2023-04-12T23:01:47.451Z,96906.19
2023-04-12T23:04:15.680Z,96906.28
2023-04-12T23:06:43.456Z,96890.03
2023-04-12T23:09:11.511Z,96900.63
2023-04-12T23:11:39.978Z,96895.69
2023-04-12T23:14:07.801Z,96893.72
2023-04-12T23:16:35.272Z,96898.31
2023-04-12T23:19:02.069Z,96886.81
2023-04-12T23:21:30.162Z,96899.66
2023-04-12T23:23:56.912Z,96903.94
2023-04-12T23:26:24.628Z,96894.25
2023-04-12T23:28:51.452Z,96886.19
2023-04-12T23:31:18.216Z,96913.59
2023-04-12T23:33:45.311Z,96891.50
2023-04-12T23:36:12.633Z,96894.13
2023-04-12T23:38:39.082Z,96882.53
2023-04-12T23:41:07.304Z,96880.78
2023-04-12T23:43:34.584Z,96886.06
2023-04-12T23:46:03.046Z,96885.28
2023-04-12T23:48:30.941Z,96858.59
2023-04-12T23:50:57.733Z,96882.28
2023-04-12T23:53:24.355Z,96872.19
2023-04-12T23:55:52.033Z,96864.59
2023-04-12T23:58:19.443Z,96868.66
